Flight Track Log - Related Links

Times and Time Zones

All times are in EDT time to prevent confusion due to time zone crossing. See the USC105 flight status page for this flight to view local times or setup timezone preferences in your user account.

Time Position Orientation Groundspeed Altitude Reporting Facility
EDT Latitude Longitude Course Direction KTS MPH feet Rate Location/Type
Fri 05:25:36 AM 41.8667 -88.2500 180° South 125 144 1,600  Level Chicago TRACON
Fri 05:26:36 AM 41.8333 -88.2500 180° South 120 138 2,700 900 Climbing Chicago TRACON
Fri 05:27:16 AM 41.8372 -88.2272 77° East 147 169 3,100 720 Climbing Chicago Center
Fri 05:28:16 AM 41.8428 -88.1747 82° East 145 167 3,900 744 Climbing Chicago Center
Fri 05:29:17 AM 41.8486 -88.1189 82° East 148 170 4,600 694 Climbing Chicago Center
Fri 05:30:17 AM 41.8572 -88.0625 78° East 151 174 5,300 694 Climbing Chicago Center
Fri 05:31:18 AM 41.8658 -88.0042 79° East 156 180 6,000 694 Climbing Chicago Center
Fri 05:32:18 AM 41.8717 -87.9458 82° East 158 182 6,700 793 Climbing Chicago Center
Fri 05:33:19 AM 41.8764 -87.8758 85° East 157 181 7,600 769 Climbing Chicago Center
Fri 05:33:36 AM 41.8833 -87.8667 44° Northeast 159 183 7,700 615 Climbing Chicago TRACON
Fri 05:34:37 AM 41.8833 -87.8000 90° East 158 182 8,400 645 Climbing Chicago TRACON
Fri 05:35:37 AM 41.9000 -87.7500 66° East 161 185 9,000 286 Climbing Chicago TRACON
Fri 05:36:43 AM 41.9000 -87.6667 90° East 202 232 9,000  Level Chicago TRACON
Fri 05:37:43 AM 41.9000 -87.5833 90° East 204 235 9,000  Level Chicago TRACON
Fri 05:38:43 AM 41.9167 -87.5167 71° East 208 239 9,000  Level Chicago TRACON
Fri 05:39:37 AM 41.9167 -87.4333 90° East 209 241 9,000  Level Chicago TRACON
Fri 05:40:37 AM 41.9333 -87.3667 71° East 207 238 9,000  Level Chicago TRACON
Fri 05:41:23 AM 41.9328 -87.3106 91° East 207 238 9,000  Level Chicago Center
Fri 05:42:23 AM 41.9406 -87.2342 82° East 207 238 9,000  Level Chicago Center
Fri 05:43:24 AM 41.9478 -87.1564 83° East 209 241 9,000  Level Chicago Center
Fri 05:44:24 AM 41.9550 -87.0800 83° East 208 239 9,000  Level Chicago Center
Fri 05:46:25 AM 41.9694 -86.9233 83° East 216 249 9,000  Level Chicago Center
Fri 05:47:26 AM 41.9769 -86.8444 83° East 215 247 9,000  Level Chicago Center
Fri 05:48:27 AM 41.9831 -86.7656 84° East 213 245 9,000  Level Chicago Center
Fri 05:49:27 AM 41.9933 -86.6744 81° East 214 246 9,000  Level Chicago Center
Fri 05:50:28 AM 42.0003 -86.5939 83° East 218 251 9,000  Level Chicago Center
Fri 05:51:28 AM 42.0081 -86.5136 83° East 217 250 9,000  Level Chicago Center
Fri 05:52:29 AM 42.0144 -86.4342 84° East 217 250 9,000  Level Chicago Center
Fri 05:53:29 AM 42.0211 -86.3539 84° East 217 250 9,000  Level Chicago Center
Fri 05:54:29 AM 42.0283 -86.2744 83° East 215 247 9,000  Level Chicago Center
Fri 05:55:30 AM 42.0350 -86.1933 84° East 216 249 9,000  Level Chicago Center
Fri 05:56:30 AM 42.0425 -86.1128 83° East 217 250 9,000  Level Chicago Center
Fri 05:57:31 AM 42.0497 -86.0342 83° East 215 247 9,000  Level Chicago Center
Fri 05:58:32 AM 42.0567 -85.9528 83° East 216 249 9,000  Level Chicago Center
Fri 05:59:32 AM 42.0631 -85.8703 84° East 220 253 9,000  Level Chicago Center
Fri 06:00:33 AM 42.0708 -85.7878 83° East 222 255 9,000  Level Chicago Center
Fri 06:01:33 AM 42.0767 -85.7044 85° East 222 255 9,000  Level Chicago Center
Fri 06:02:34 AM 42.0836 -85.6208 84° East 224 258 9,000  Level Chicago Center
Fri 06:03:34 AM 42.0914 -85.5383 83° East 223 257 9,000  Level Chicago Center
Fri 06:04:35 AM 42.0983 -85.4553 84° East 223 257 9,000  Level Chicago Center
Fri 06:05:35 AM 42.1039 -85.3717 85° East 223 257 9,000  Level Chicago Center
Fri 06:06:36 AM 42.1108 -85.2894 83° East 222 255 9,000  Level Chicago Center
Fri 06:07:36 AM 42.1178 -85.2061 84° East 222 255 9,000  Level Chicago Center
Fri 06:08:38 AM 42.1242 -85.1233 84° East 222 255 9,000  Level Chicago Center
Fri 06:09:37 AM 42.1306 -85.0403 84° East 222 255 9,000  Level Chicago Center
Fri 06:10:38 AM 42.1369 -84.9564 84° East 224 258 9,000  Level Chicago Center
Fri 06:11:38 AM 42.1428 -84.8742 85° East 222 255 9,000  Level Chicago Center
Fri 06:12:39 AM 42.1494 -84.7906 84° East 223 257 9,000  Level Chicago Center
Fri 06:13:39 AM 42.1561 -84.7061 84° East 225 259 9,000  Level Chicago Center
Fri 06:14:40 AM 42.1625 -84.6244 84° East 223 257 9,000 -298 Level Chicago Center
Fri 06:15:40 AM 42.1681 -84.5364 85° East 231 266 8,400 -645 Descending Chicago Center
Fri 06:16:13 AM 42.1733 -84.4778 83° East 243 280 8,000 -593 Descending Cleveland Center
Fri 06:17:01 AM 42.1756 -84.4053 88° East 242 278 7,600 -550 Descending Cleveland Center
Fri 06:18:02 AM 42.1850 -84.3106 82° East 240 276 7,000 -545 Descending Cleveland Center
Fri 06:19:02 AM 42.1900 -84.2211 86° East 241 277 6,500 -472 Descending Cleveland Center
Fri 06:20:09 AM 42.1972 -84.1261 84° East 232 267 6,000 -563 Descending Cleveland Center
Fri 06:21:10 AM 42.2164 -84.0431 73° East 234 269 5,300 -783 Descending Cleveland Center
Fri 06:22:04 AM 42.2456 -83.9744 60° Northeast 235 270 4,500 -678 Descending Cleveland Center
Fri 06:23:05 AM 42.2811 -83.8978 58° Northeast 235 270 4,000 -246 Descending Cleveland Center
Fri 06:24:06 AM 42.3142 -83.8322 56° Northeast 209 241 4,000 -298 Level Cleveland Center
Fri 06:25:06 AM 42.3369 -83.7603 67° East 214 246 3,400 -522 Descending Cleveland Center
Fri 06:26:01 AM 42.3578 -83.6911 68° East 210 242 3,000 -248 Descending Cleveland Center
Fri 06:27:07 AM 42.3825 -83.6219 64° Northeast 180 207 2,900 -283 Descending Cleveland Center
Fri 06:28:08 AM 42.3989 -83.5581 71° East 185 213 2,400 -246 Descending Cleveland Center
Fri 06:29:09 AM 42.4044 -83.5019 82° East 154 177 2,400 49 Level Cleveland Center
Fri 06:30:10 AM 42.3847 -83.4506 117° Southeast 140 161 2,500  Climbing Cleveland Center
Fri 06:31:10 AM 42.3672 -83.4047 117° Southeast 144 166 2,400 -52 Descending Cleveland Center
Fri 06:32:05 AM 42.3339 -83.4061 182° South 134 154 2,400  Level Cleveland Center
Fri 06:33:12 AM 42.3039 -83.4383 218° Southwest 142 163 2,400 -283 Level Cleveland Center
Fri 06:34:12 AM 42.2778 -83.4767 227° Southwest 118 136 1,800 -645 Descending Cleveland Center
Fri 06:35:13 AM 42.2542 -83.5064 223° Southwest 106 122 1,100 -689 Descending Cleveland Center

Login

Don't have an account? Register now (free) for customized features, flight alerts, and more!